Time;durP1;ratioP1;P1;durP2;ratioP2;P2;SDS_P1;SDS_P2;PMS_P1;PMS_P2;Temp;Humidity;BMP_temperature;BMP_pressure;BME280_temperature;BME280_humidity;BME280_pressure;Samples;Min_cycle;Max_cycle;Signal;HPM_P1;HPM_P2
2021/06/20 00:01:11;;;;;;;5.65;5.18;;;;;;;;;;5073259;28;20020;-60
2021/06/20 00:03:36;;;;;;;5.75;4.90;;;;;;;;;;5072931;28;20032;-61
2021/06/20 00:06:10;;;;;;;6.22;4.85;;;;;;;;;;5073138;28;20032;-61
2021/06/20 00:08:36;;;;;;;5.10;4.70;;;;;;;;;;5072900;28;20578;-61
2021/06/20 00:11:02;;;;;;;4.97;4.57;;;;;;;;;;5076120;28;20100;-61
2021/06/20 00:13:27;;;;;;;5.20;4.70;;;;;;;;;;5079798;28;20031;-61
2021/06/20 00:15:53;;;;;;;5.43;4.93;;;;;;;;;;5079854;28;20474;-60
2021/06/20 00:18:18;;;;;;;5.53;5.03;;;;;;;;;;5079808;28;20055;-60
2021/06/20 00:20:45;;;;;;;5.25;4.70;;;;;;;;;;5079659;28;20378;-60
2021/06/20 00:23:11;;;;;;;5.13;4.70;;;;;;;;;;5079639;28;20059;-60
2021/06/20 00:25:37;;;;;;;7.28;5.13;;;;;;;;;;5079624;28;20024;-61
2021/06/20 00:28:02;;;;;;;6.60;5.22;;;;;;;;;;5079471;28;20111;-61
2021/06/20 00:30:29;;;;;;;6.40;5.20;;;;;;;;;;5079526;28;20016;-61
2021/06/20 00:32:55;;;;;;;5.82;5.32;;;;;;;;;;5079559;28;20029;-61
2021/06/20 00:35:21;;;;;;;6.35;5.03;;;;;;;;;;5078297;28;20022;-60
2021/06/20 00:37:47;;;;;;;5.22;4.82;;;;;;;;;;5079468;28;20032;-60
2021/06/20 00:40:13;;;;;;;6.45;5.45;;;;;;;;;;5079524;28;20386;-60
2021/06/20 00:42:39;;;;;;;6.28;5.15;;;;;;;;;;5079496;28;20028;-60
2021/06/20 00:45:05;;;;;;;6.53;5.15;;;;;;;;;;5079369;28;20024;-60
2021/06/20 00:47:31;;;;;;;7.90;5.80;;;;;;;;;;5079373;28;20113;-61
2021/06/20 00:49:57;;;;;;;5.68;5.18;;;;;;;;;;5079237;28;20063;-61
2021/06/20 00:52:22;;;;;;;5.80;5.40;;;;;;;;;;5079391;28;20020;-60
2021/06/20 00:54:48;;;;;;;6.00;5.40;;;;;;;;;;5079244;28;20027;-61
2021/06/20 00:57:17;;;;;;;6.10;5.20;;;;;;;;;;5079243;28;20542;-61
2021/06/20 00:59:43;;;;;;;6.05;4.75;;;;;;;;;;5079227;28;20078;-61
2021/06/20 01:02:10;;;;;;;5.40;4.70;;;;;;;;;;5077919;28;20028;-60
2021/06/20 01:04:35;;;;;;;5.45;5.00;;;;;;;;;;5078511;28;20047;-60
2021/06/20 01:07:01;;;;;;;5.18;4.88;;;;;;;;;;5079066;28;20055;-60
2021/06/20 01:09:26;;;;;;;5.70;4.57;;;;;;;;;;5079051;28;20494;-60
2021/06/20 01:11:52;;;;;;;5.38;4.82;;;;;;;;;;5079111;28;20090;-61
2021/06/20 01:14:17;;;;;;;5.32;4.82;;;;;;;;;;5079023;28;20027;-60
2021/06/20 01:16:43;;;;;;;5.60;5.10;;;;;;;;;;5079110;28;20438;-61
2021/06/20 01:19:08;;;;;;;5.18;4.68;;;;;;;;;;5079094;28;20032;-61
2021/06/20 01:21:34;;;;;;;5.53;4.97;;;;;;;;;;5078437;28;20075;-60
2021/06/20 01:23:59;;;;;;;5.60;5.10;;;;;;;;;;5075228;28;20072;-61
2021/06/20 01:26:24;;;;;;;5.10;4.80;;;;;;;;;;5075920;28;20032;-60
2021/06/20 01:29:01;;;;;;;5.75;5.25;;;;;;;;;;5075739;28;20024;-60
2021/06/20 01:31:27;;;;;;;5.15;4.75;;;;;;;;;;5075783;28;20395;-60
2021/06/20 01:33:52;;;;;;;5.47;4.97;;;;;;;;;;5075733;28;20025;-60
2021/06/20 01:36:18;;;;;;;5.88;4.80;;;;;;;;;;5075733;28;20117;-60
2021/06/20 01:38:43;;;;;;;6.47;5.30;;;;;;;;;;5075710;28;20074;-61
2021/06/20 01:41:09;;;;;;;5.57;5.13;;;;;;;;;;5075517;28;20032;-60
2021/06/20 01:43:34;;;;;;;5.30;4.80;;;;;;;;;;5075543;28;20103;-61
2021/06/20 01:46:00;;;;;;;6.35;4.75;;;;;;;;;;5075375;28;20092;-61
2021/06/20 01:48:25;;;;;;;5.32;4.80;;;;;;;;;;5075436;28;20096;-60
2021/06/20 01:50:51;;;;;;;5.32;4.82;;;;;;;;;;5075427;28;20382;-60
2021/06/20 01:53:16;;;;;;;6.45;4.90;;;;;;;;;;5075302;28;20348;-60
2021/06/20 01:55:43;;;;;;;6.05;4.82;;;;;;;;;;5075254;28;20060;-60
2021/06/20 01:58:09;;;;;;;5.15;4.65;;;;;;;;;;5075265;28;20020;-60
2021/06/20 02:00:37;;;;;;;5.00;4.60;;;;;;;;;;5073573;28;20033;-61
2021/06/20 02:03:06;;;;;;;4.88;4.55;;;;;;;;;;5075404;28;20435;-61
2021/06/20 02:05:32;;;;;;;5.28;4.78;;;;;;;;;;5074955;28;20492;-61
2021/06/20 02:07:57;;;;;;;9.32;5.05;;;;;;;;;;5074945;28;20071;-60
2021/06/20 02:10:22;;;;;;;5.88;4.60;;;;;;;;;;5074926;28;20060;-61
2021/06/20 02:12:48;;;;;;;4.95;4.50;;;;;;;;;;5074959;28;20052;-60
2021/06/20 02:15:16;;;;;;;4.75;4.35;;;;;;;;;;5074876;28;20031;-60
2021/06/20 02:17:41;;;;;;;4.88;4.30;;;;;;;;;;5074929;28;20099;-60
2021/06/20 02:20:08;;;;;;;5.03;4.55;;;;;;;;;;5074724;28;20127;-60
2021/06/20 02:22:33;;;;;;;7.55;5.00;;;;;;;;;;5074775;28;20028;-60
2021/06/20 02:24:59;;;;;;;5.22;4.75;;;;;;;;;;5073377;28;20031;-60
2021/06/20 02:27:24;;;;;;;4.72;4.40;;;;;;;;;;5074782;28;20024;-61
2021/06/20 02:29:51;;;;;;;4.88;4.47;;;;;;;;;;5074479;28;20478;-61
2021/06/20 02:32:17;;;;;;;5.07;4.47;;;;;;;;;;5074562;28;20025;-61
2021/06/20 02:34:43;;;;;;;5.07;4.68;;;;;;;;;;5071996;28;20035;-61
2021/06/20 02:37:09;;;;;;;4.75;4.30;;;;;;;;;;5074567;28;20127;-61
2021/06/20 02:39:35;;;;;;;6.78;4.78;;;;;;;;;;5074573;28;20055;-61
2021/06/20 02:42:01;;;;;;;4.80;4.50;;;;;;;;;;5074433;28;20466;-60
2021/06/20 02:44:26;;;;;;;5.25;4.32;;;;;;;;;;5074271;28;20032;-61
2021/06/20 02:46:54;;;;;;;5.53;4.88;;;;;;;;;;5074294;28;20027;-60
2021/06/20 02:49:19;;;;;;;4.65;4.35;;;;;;;;;;5074197;28;20036;-60
2021/06/20 02:51:45;;;;;;;4.70;4.30;;;;;;;;;;5074264;28;20024;-61
2021/06/20 02:54:11;;;;;;;4.82;4.43;;;;;;;;;;5073895;28;20394;-61
2021/06/20 02:56:36;;;;;;;5.00;4.47;;;;;;;;;;5074111;28;20096;-60
2021/06/20 02:59:02;;;;;;;4.85;4.55;;;;;;;;;;5074138;28;20150;-60
2021/06/20 03:01:27;;;;;;;5.00;4.57;;;;;;;;;;5073974;28;20075;-60
2021/06/20 03:03:52;;;;;;;4.85;4.45;;;;;;;;;;5073628;28;20387;-61
2021/06/20 03:06:18;;;;;;;4.90;4.50;;;;;;;;;;5074167;28;20078;-60
2021/06/20 03:08:44;;;;;;;4.95;4.47;;;;;;;;;;5073749;28;20033;-60
2021/06/20 03:11:09;;;;;;;5.85;4.68;;;;;;;;;;5072623;28;20016;-61
2021/06/20 03:13:34;;;;;;;6.93;4.60;;;;;;;;;;5072686;28;20093;-61
2021/06/20 03:16:00;;;;;;;6.22;4.82;;;;;;;;;;5073740;28;20440;-60
2021/06/20 03:18:25;;;;;;;4.70;4.40;;;;;;;;;;5073812;28;20028;-61
2021/06/20 03:20:51;;;;;;;5.32;4.88;;;;;;;;;;5073603;28;20425;-60
2021/06/20 03:23:16;;;;;;;5.07;4.60;;;;;;;;;;5073595;28;20445;-60
2021/06/20 03:25:42;;;;;;;5.10;4.65;;;;;;;;;;5073465;28;20021;-60
2021/06/20 03:28:07;;;;;;;5.53;4.90;;;;;;;;;;5073400;28;20029;-60
2021/06/20 03:30:34;;;;;;;5.15;4.78;;;;;;;;;;5073449;28;20070;-60
2021/06/20 03:32:59;;;;;;;4.55;4.25;;;;;;;;;;5073378;28;20394;-61
2021/06/20 03:35:25;;;;;;;5.30;4.90;;;;;;;;;;5073425;28;20017;-61
2021/06/20 03:37:50;;;;;;;6.03;4.60;;;;;;;;;;5073448;28;20433;-61
2021/06/20 03:40:16;;;;;;;5.55;4.40;;;;;;;;;;5073364;28;20028;-61
2021/06/20 03:42:42;;;;;;;5.13;4.60;;;;;;;;;;5073375;28;20081;-61
2021/06/20 03:45:08;;;;;;;4.75;4.38;;;;;;;;;;5072924;28;20513;-61
2021/06/20 03:47:34;;;;;;;5.38;4.50;;;;;;;;;;5073233;28;20054;-60
2021/06/20 03:49:59;;;;;;;5.25;4.45;;;;;;;;;;5073143;28;20457;-60
2021/06/20 03:52:25;;;;;;;5.00;4.60;;;;;;;;;;5073282;28;20564;-60
2021/06/20 03:54:51;;;;;;;5.05;4.65;;;;;;;;;;5071847;28;20367;-60
2021/06/20 03:57:19;;;;;;;4.60;4.22;;;;;;;;;;5073294;28;20074;-60
2021/06/20 03:59:45;;;;;;;8.18;7.07;;;;;;;;;;5073243;28;20028;-60
2021/06/20 04:02:10;;;;;;;6.07;4.30;;;;;;;;;;5073159;28;20062;-61
2021/06/20 04:04:39;;;;;;;4.40;4.07;;;;;;;;;;5072831;28;20036;-61
2021/06/20 04:07:05;;;;;;;4.53;4.22;;;;;;;;;;5073152;28;20409;-60
2021/06/20 04:09:31;;;;;;;4.85;4.45;;;;;;;;;;5072927;28;20037;-60
2021/06/20 04:11:56;;;;;;;4.50;4.20;;;;;;;;;;5072984;28;20035;-61
2021/06/20 04:14:22;;;;;;;4.53;3.97;;;;;;;;;;5072881;28;20017;-60
2021/06/20 04:16:47;;;;;;;4.70;4.38;;;;;;;;;;5072876;28;20025;-60
2021/06/20 04:19:12;;;;;;;6.18;4.30;;;;;;;;;;5072889;28;20020;-61
2021/06/20 04:21:38;;;;;;;4.63;4.32;;;;;;;;;;5072977;28;20033;-61
2021/06/20 04:24:03;;;;;;;4.35;4.05;;;;;;;;;;5072985;28;20032;-60
2021/06/20 04:26:29;;;;;;;3.97;3.63;;;;;;;;;;5072775;28;20101;-61
2021/06/20 04:28:54;;;;;;;4.70;4.30;;;;;;;;;;5072815;28;20029;-61
2021/06/20 04:31:20;;;;;;;4.95;4.55;;;;;;;;;;5072853;28;20024;-61
2021/06/20 04:33:45;;;;;;;4.38;4.07;;;;;;;;;;5072860;28;20052;-61
2021/06/20 04:36:11;;;;;;;4.40;4.00;;;;;;;;;;5072847;28;20029;-61
2021/06/20 04:38:37;;;;;;;4.40;4.10;;;;;;;;;;5072858;28;20021;-61
2021/06/20 04:41:05;;;;;;;4.35;3.95;;;;;;;;;;5072656;28;20036;-60
2021/06/20 04:44:05;;;;;;;4.80;4.45;;;;;;;;;;5072753;28;20029;-60
2021/06/20 04:46:24;;;;;;;5.03;4.25;;;;;;;;;;5071531;28;20406;-60
2021/06/20 04:48:53;;;;;;;4.63;4.30;;;;;;;;;;5072581;28;20021;-60
2021/06/20 04:51:19;;;;;;;4.50;4.20;;;;;;;;;;5054827;28;20115;-60
2021/06/20 04:53:44;;;;;;;4.10;3.80;;;;;;;;;;5072688;28;20518;-61
2021/06/20 04:56:10;;;;;;;4.50;4.15;;;;;;;;;;5072585;28;20025;-61
2021/06/20 04:58:35;;;;;;;4.07;3.85;;;;;;;;;;5075113;28;20410;-61
2021/06/20 05:01:00;;;;;;;4.82;4.32;;;;;;;;;;5076296;28;20115;-60
2021/06/20 05:03:26;;;;;;;4.43;4.00;;;;;;;;;;5075980;28;20024;-61
2021/06/20 05:05:51;;;;;;;5.13;4.22;;;;;;;;;;5076182;28;20413;-61
2021/06/20 05:08:17;;;;;;;4.30;4.00;;;;;;;;;;5075963;28;20036;-60
2021/06/20 05:10:42;;;;;;;4.05;3.80;;;;;;;;;;5076098;28;20154;-61
2021/06/20 05:13:08;;;;;;;3.78;3.58;;;;;;;;;;5075981;28;20016;-60
2021/06/20 05:15:33;;;;;;;4.30;3.90;;;;;;;;;;5076050;28;20077;-61
2021/06/20 05:17:59;;;;;;;6.60;3.90;;;;;;;;;;5075974;28;20025;-60
2021/06/20 05:20:24;;;;;;;4.78;4.03;;;;;;;;;;5076023;28;20509;-61
2021/06/20 05:22:50;;;;;;;5.30;3.70;;;;;;;;;;5076020;28;20534;-61
2021/06/20 05:25:16;;;;;;;4.45;4.00;;;;;;;;;;5075888;28;20036;-61
2021/06/20 05:27:42;;;;;;;4.47;3.55;;;;;;;;;;5074444;28;20024;-60
2021/06/20 05:30:08;;;;;;;4.95;3.75;;;;;;;;;;5075688;28;20074;-60
2021/06/20 05:32:33;;;;;;;3.83;3.63;;;;;;;;;;5075815;28;20025;-60
2021/06/20 05:34:59;;;;;;;3.97;3.67;;;;;;;;;;5075659;28;20103;-60
2021/06/20 05:37:24;;;;;;;3.92;3.22;;;;;;;;;;5075706;28;20013;-60
2021/06/20 05:39:49;;;;;;;3.47;3.17;;;;;;;;;;5075627;28;20029;-61
2021/06/20 05:42:15;;;;;;;4.40;3.67;;;;;;;;;;5075725;28;20060;-61
2021/06/20 05:44:40;;;;;;;4.30;3.47;;;;;;;;;;5075631;28;20056;-61
2021/06/20 05:47:06;;;;;;;3.53;3.28;;;;;;;;;;5075303;28;20471;-61
2021/06/20 05:49:31;;;;;;;3.58;3.28;;;;;;;;;;5075271;28;20454;-60
2021/06/20 05:51:56;;;;;;;3.42;3.22;;;;;;;;;;5075560;28;20020;-60
2021/06/20 05:54:22;;;;;;;4.65;3.50;;;;;;;;;;5075422;28;20033;-61
2021/06/20 05:56:47;;;;;;;4.20;3.53;;;;;;;;;;5075303;28;20017;-60
2021/06/20 05:59:13;;;;;;;3.17;2.97;;;;;;;;;;5075240;28;20024;-60
2021/06/20 06:01:39;;;;;;;3.40;3.17;;;;;;;;;;5075203;28;20021;-60
2021/06/20 06:04:04;;;;;;;4.47;3.60;;;;;;;;;;5074791;28;20577;-61
2021/06/20 06:06:31;;;;;;;3.78;3.47;;;;;;;;;;5075240;28;20029;-61
2021/06/20 06:08:56;;;;;;;3.85;3.40;;;;;;;;;;5074864;28;20067;-61
2021/06/20 06:11:21;;;;;;;3.70;3.38;;;;;;;;;;5073756;28;20055;-60
2021/06/20 06:13:47;;;;;;;6.97;3.17;;;;;;;;;;5074904;28;20024;-60
2021/06/20 06:16:12;;;;;;;3.97;3.30;;;;;;;;;;5075008;28;20023;-60
2021/06/20 06:18:38;;;;;;;3.47;3.17;;;;;;;;;;5074865;28;20028;-60
2021/06/20 06:21:03;;;;;;;3.10;2.90;;;;;;;;;;5074993;28;20027;-60
2021/06/20 06:23:29;;;;;;;2.95;2.75;;;;;;;;;;5074945;28;20367;-61
2021/06/20 06:25:54;;;;;;;3.83;2.70;;;;;;;;;;5073583;28;20543;-61
2021/06/20 06:28:20;;;;;;;3.33;2.92;;;;;;;;;;5074611;28;20068;-61
2021/06/20 06:30:45;;;;;;;3.33;3.03;;;;;;;;;;5074589;28;20020;-60
2021/06/20 06:33:11;;;;;;;3.00;2.80;;;;;;;;;;5074474;28;20032;-60
2021/06/20 06:35:36;;;;;;;3.13;2.92;;;;;;;;;;5074190;28;20028;-60
2021/06/20 06:38:02;;;;;;;3.40;3.20;;;;;;;;;;5074555;28;20498;-61
2021/06/20 06:40:28;;;;;;;3.03;2.83;;;;;;;;;;5074431;28;20138;-60
2021/06/20 06:42:54;;;;;;;3.10;2.90;;;;;;;;;;5074531;28;20021;-60
2021/06/20 06:45:24;;;;;;;3.33;3.17;;;;;;;;;;5074560;28;20013;-60
2021/06/20 06:47:49;;;;;;;2.97;2.72;;;;;;;;;;5073112;28;20032;-61
2021/06/20 06:50:15;;;;;;;3.30;3.00;;;;;;;;;;5074210;28;20020;-61
2021/06/20 06:52:40;;;;;;;4.10;3.13;;;;;;;;;;5074165;28;20023;-61
2021/06/20 06:55:09;;;;;;;3.08;2.88;;;;;;;;;;5074264;28;20371;-61
2021/06/20 06:57:34;;;;;;;2.83;2.63;;;;;;;;;;5074261;28;20024;-61
2021/06/20 07:00:00;;;;;;;4.18;3.08;;;;;;;;;;5074462;28;20114;-61
2021/06/20 07:02:25;;;;;;;3.25;2.97;;;;;;;;;;5073936;28;20040;-60
2021/06/20 07:04:51;;;;;;;3.15;2.95;;;;;;;;;;5073508;28;20510;-60
2021/06/20 07:07:17;;;;;;;3.25;2.72;;;;;;;;;;5073870;28;20166;-60
2021/06/20 07:09:42;;;;;;;6.68;2.75;;;;;;;;;;5073788;28;20036;-61
2021/06/20 07:12:07;;;;;;;3.92;2.92;;;;;;;;;;5073884;28;20435;-61
2021/06/20 07:14:37;;;;;;;2.72;2.53;;;;;;;;;;5073875;28;20027;-60
2021/06/20 07:17:04;;;;;;;2.58;2.47;;;;;;;;;;5073722;28;20016;-60
2021/06/20 07:19:30;;;;;;;2.50;2.40;;;;;;;;;;5073574;28;20390;-61
2021/06/20 07:21:56;;;;;;;2.42;2.33;;;;;;;;;;5073257;28;20024;-60
2021/06/20 07:24:21;;;;;;;2.40;2.30;;;;;;;;;;5073668;28;20559;-60
2021/06/20 07:26:46;;;;;;;2.53;2.38;;;;;;;;;;5073453;28;20035;-60
2021/06/20 07:29:12;;;;;;;2.50;2.40;;;;;;;;;;5073448;28;20023;-60
2021/06/20 07:31:37;;;;;;;2.70;2.50;;;;;;;;;;5072999;28;20028;-61
2021/06/20 07:34:03;;;;;;;2.60;2.40;;;;;;;;;;5073757;28;20054;-60
2021/06/20 07:36:28;;;;;;;2.72;2.53;;;;;;;;;;5073259;28;20085;-60
2021/06/20 07:38:53;;;;;;;3.20;2.72;;;;;;;;;;5073394;28;20017;-60
2021/06/20 07:41:19;;;;;;;2.90;2.70;;;;;;;;;;5073378;28;20078;-60
2021/06/20 07:43:45;;;;;;;2.70;2.50;;;;;;;;;;5073396;28;20024;-60
2021/06/20 07:46:10;;;;;;;2.60;2.40;;;;;;;;;;5073303;28;20028;-60
2021/06/20 07:48:36;;;;;;;2.75;2.55;;;;;;;;;;5073320;28;20485;-60
2021/06/20 07:51:01;;;;;;;2.72;2.53;;;;;;;;;;5071826;28;20036;-60
2021/06/20 07:53:27;;;;;;;2.70;2.50;;;;;;;;;;5073268;28;20103;-60
2021/06/20 07:55:52;;;;;;;2.45;2.35;;;;;;;;;;5073092;28;20078;-60
2021/06/20 07:58:18;;;;;;;2.75;2.58;;;;;;;;;;5073386;28;20025;-60
2021/06/20 08:00:43;;;;;;;2.70;2.50;;;;;;;;;;5073021;28;20059;-60
2021/06/20 08:03:09;;;;;;;4.53;2.85;;;;;;;;;;5073035;28;20012;-60
2021/06/20 08:05:35;;;;;;;2.13;2.00;;;;;;;;;;5072863;28;20040;-60
2021/06/20 08:08:00;;;;;;;2.92;2.65;;;;;;;;;;5073016;28;20031;-60
2021/06/20 08:10:26;;;;;;;3.05;2.78;;;;;;;;;;5072974;28;20035;-60
2021/06/20 08:12:51;;;;;;;3.47;2.70;;;;;;;;;;5073144;28;20009;-60
2021/06/20 08:15:17;;;;;;;5.43;2.70;;;;;;;;;;5073077;28;20039;-60
2021/06/20 08:17:42;;;;;;;3.42;2.63;;;;;;;;;;5072938;28;20383;-60
2021/06/20 08:20:10;;;;;;;2.70;2.60;;;;;;;;;;5072905;28;20089;-60
2021/06/20 08:22:36;;;;;;;3.05;2.75;;;;;;;;;;5072928;28;20425;-60
2021/06/20 08:25:02;;;;;;;2.88;2.63;;;;;;;;;;5072695;28;20029;-61
2021/06/20 08:27:27;;;;;;;2.78;2.60;;;;;;;;;;5072965;28;20059;-60
2021/06/20 08:29:54;;;;;;;3.15;2.83;;;;;;;;;;5071580;28;20509;-60
2021/06/20 08:32:21;;;;;;;3.92;3.28;;;;;;;;;;5075162;28;20013;-60
2021/06/20 08:34:47;;;;;;;3.97;3.67;;;;;;;;;;5076894;28;20086;-60
2021/06/20 08:37:12;;;;;;;2.60;2.40;;;;;;;;;;5075708;28;20020;-60
2021/06/20 08:39:37;;;;;;;2.10;2.00;;;;;;;;;;5076725;28;20494;-60
2021/06/20 08:42:03;;;;;;;2.88;2.47;;;;;;;;;;5076860;28;20028;-60
2021/06/20 08:44:30;;;;;;;2.53;2.42;;;;;;;;;;5076792;28;20032;-60
2021/06/20 08:46:57;;;;;;;2.10;2.00;;;;;;;;;;5076610;28;20082;-60
2021/06/20 08:49:23;;;;;;;2.80;2.63;;;;;;;;;;5075318;28;20029;-60
2021/06/20 08:51:49;;;;;;;1.98;1.88;;;;;;;;;;5076476;28;20020;-60
2021/06/20 08:54:15;;;;;;;2.50;2.40;;;;;;;;;;5076376;28;20478;-60
2021/06/20 08:56:41;;;;;;;2.55;2.45;;;;;;;;;;5076395;28;20052;-60
2021/06/20 08:59:06;;;;;;;2.47;2.33;;;;;;;;;;5076328;28;20390;-60
2021/06/20 09:01:32;;;;;;;2.47;2.28;;;;;;;;;;5076339;28;20024;-60
2021/06/20 09:03:58;;;;;;;2.10;2.00;;;;;;;;;;5075757;28;20037;-60
2021/06/20 09:06:24;;;;;;;2.40;2.20;;;;;;;;;;5076417;28;20025;-60
2021/06/20 09:08:54;;;;;;;2.47;2.30;;;;;;;;;;5076108;28;20074;-60
2021/06/20 09:11:22;;;;;;;2.17;2.08;;;;;;;;;;5076281;28;20013;-60
2021/06/20 09:13:48;;;;;;;2.85;2.50;;;;;;;;;;5076243;28;20415;-60
2021/06/20 09:16:13;;;;;;;2.42;2.22;;;;;;;;;;5076057;28;20016;-60
2021/06/20 09:18:48;;;;;;;2.78;2.67;;;;;;;;;;5076130;28;20032;-60
2021/06/20 09:21:13;;;;;;;2.90;2.60;;;;;;;;;;5075978;28;20029;-60
2021/06/20 09:23:40;;;;;;;2.38;2.17;;;;;;;;;;5075924;28;20090;-60
2021/06/20 09:26:06;;;;;;;3.10;2.90;;;;;;;;;;5075835;28;20094;-60
2021/06/20 09:28:33;;;;;;;2.83;2.55;;;;;;;;;;5075776;28;20024;-60
2021/06/20 09:31:00;;;;;;;2.28;2.03;;;;;;;;;;5075861;28;20027;-60
2021/06/20 09:33:29;;;;;;;2.17;1.98;;;;;;;;;;5075965;28;20111;-60
2021/06/20 09:35:57;;;;;;;2.25;2.15;;;;;;;;;;5074678;28;20028;-60
2021/06/20 09:38:25;;;;;;;2.30;2.10;;;;;;;;;;5075864;28;20154;-60
2021/06/20 09:41:11;;;;;;;2.10;1.88;;;;;;;;;;5075606;28;20039;-60
2021/06/20 09:43:38;;;;;;;2.50;2.40;;;;;;;;;;5074590;28;20044;-60
2021/06/20 09:46:03;;;;;;;2.55;2.45;;;;;;;;;;5075502;28;20024;-60
2021/06/20 09:48:33;;;;;;;2.17;2.08;;;;;;;;;;5075427;28;20059;-60
2021/06/20 09:51:00;;;;;;;2.28;2.17;;;;;;;;;;5075424;28;20039;-60
2021/06/20 09:53:38;;;;;;;2.72;2.63;;;;;;;;;;5075438;28;20020;-60
2021/06/20 09:56:16;;;;;;;2.17;2.08;;;;;;;;;;5075280;28;20029;-60
2021/06/20 09:58:45;;;;;;;2.90;2.70;;;;;;;;;;5075098;28;20486;-60
2021/06/20 10:01:12;;;;;;;2.80;2.70;;;;;;;;;;5075260;28;20037;-60
2021/06/20 10:03:37;;;;;;;2.58;2.33;;;;;;;;;;5074992;28;20032;-61
2021/06/20 10:06:03;;;;;;;3.08;2.88;;;;;;;;;;5075163;28;20028;-60
2021/06/20 10:08:32;;;;;;;3.13;2.55;;;;;;;;;;5074947;28;20036;-60
2021/06/20 10:10:58;;;;;;;4.32;3.50;;;;;;;;;;5073918;28;20398;-61
2021/06/20 10:13:23;;;;;;;2.60;2.50;;;;;;;;;;5075367;28;20027;-60
2021/06/20 10:15:49;;;;;;;4.15;3.05;;;;;;;;;;5075302;28;20017;-60
2021/06/20 10:18:15;;;;;;;2.78;2.58;;;;;;;;;;5075394;28;20024;-60
2021/06/20 10:20:41;;;;;;;2.70;2.50;;;;;;;;;;5075474;28;20360;-60
2021/06/20 10:23:23;;;;;;;2.90;2.70;;;;;;;;;;5075381;28;20085;-60
2021/06/20 10:25:48;;;;;;;2.40;2.30;;;;;;;;;;5074957;28;20028;-61
2021/06/20 10:28:15;;;;;;;2.45;2.30;;;;;;;;;;5073386;28;20028;-61
2021/06/20 10:30:45;;;;;;;2.67;2.58;;;;;;;;;;5073782;28;20081;-60
2021/06/20 10:33:11;;;;;;;2.38;2.17;;;;;;;;;;5075054;28;20143;-60
2021/06/20 10:35:38;;;;;;;2.33;2.22;;;;;;;;;;5074997;28;20392;-60
2021/06/20 10:38:04;;;;;;;2.90;2.58;;;;;;;;;;5073904;28;20073;-60
2021/06/20 10:40:34;;;;;;;3.00;2.72;;;;;;;;;;5074857;28;20104;-60
2021/06/20 10:43:11;;;;;;;2.55;2.33;;;;;;;;;;5074731;28;20036;-60
2021/06/20 10:45:38;;;;;;;2.70;2.53;;;;;;;;;;5073396;28;20394;-60
2021/06/20 10:48:19;;;;;;;4.07;3.05;;;;;;;;;;5073413;28;20101;-60
2021/06/20 10:50:54;;;;;;;3.15;2.85;;;;;;;;;;5074555;28;20120;-60
2021/06/20 10:53:20;;;;;;;2.17;2.08;;;;;;;;;;5074626;28;20062;-61
2021/06/20 10:55:56;;;;;;;2.40;2.20;;;;;;;;;;5073567;28;20040;-60
2021/06/20 10:58:21;;;;;;;3.03;2.72;;;;;;;;;;5074733;28;20031;-61
2021/06/20 11:00:47;;;;;;;3.28;2.80;;;;;;;;;;5074091;28;20020;-60
2021/06/20 11:03:29;;;;;;;1.98;1.88;;;;;;;;;;5073979;28;20375;-60
2021/06/20 11:05:56;;;;;;;2.10;2.00;;;;;;;;;;5073939;28;20556;-60
2021/06/20 11:08:25;;;;;;;2.00;1.90;;;;;;;;;;5073853;28;20024;-61
2021/06/20 11:11:11;;;;;;;2.10;2.00;;;;;;;;;;5073727;28;20025;-61
2021/06/20 11:13:38;;;;;;;2.90;2.70;;;;;;;;;;5073850;28;20036;-60
2021/06/20 11:16:03;;;;;;;2.70;2.53;;;;;;;;;;5073936;28;20481;-60
2021/06/20 11:18:29;;;;;;;2.20;2.10;;;;;;;;;;5073731;28;20024;-60
2021/06/20 11:20:54;;;;;;;2.80;2.70;;;;;;;;;;5073568;28;20042;-60
2021/06/20 11:23:20;;;;;;;3.70;2.90;;;;;;;;;;5073762;28;20060;-60
2021/06/20 11:25:52;;;;;;;6.28;2.80;;;;;;;;;;5073725;28;20424;-60
2021/06/20 11:28:18;;;;;;;2.60;2.50;;;;;;;;;;5073709;28;20025;-61
2021/06/20 11:30:43;;;;;;;2.60;2.50;;;;;;;;;;5073701;28;20424;-60
2021/06/20 11:33:08;;;;;;;2.65;2.53;;;;;;;;;;5073538;28;20036;-61
2021/06/20 11:35:35;;;;;;;2.15;1.95;;;;;;;;;;5073531;28;20016;-60
2021/06/20 11:38:01;;;;;;;2.97;2.70;;;;;;;;;;5073439;28;20036;-60
2021/06/20 11:40:26;;;;;;;2.70;2.45;;;;;;;;;;5073512;28;20021;-60
2021/06/20 11:42:53;;;;;;;2.58;2.45;;;;;;;;;;5073471;28;20040;-61
2021/06/20 11:45:31;;;;;;;2.70;2.50;;;;;;;;;;5073348;28;20027;-60
2021/06/20 11:48:00;;;;;;;2.83;2.63;;;;;;;;;;5073249;28;20094;-60
2021/06/20 11:50:27;;;;;;;3.30;3.10;;;;;;;;;;5073233;28;20025;-60
2021/06/20 11:53:03;;;;;;;2.90;2.70;;;;;;;;;;5073193;28;20517;-61
2021/06/20 11:55:33;;;;;;;2.78;2.55;;;;;;;;;;5073221;28;20471;-60
2021/06/20 11:58:05;;;;;;;3.85;2.38;;;;;;;;;;5072775;28;20017;-60
2021/06/20 12:00:31;;;;;;;3.15;2.85;;;;;;;;;;5073329;28;20021;-60
2021/06/20 12:03:07;;;;;;;2.03;1.92;;;;;;;;;;5073142;28;20386;-60
2021/06/20 12:05:35;;;;;;;2.50;2.33;;;;;;;;;;5072670;28;20037;-61
2021/06/20 12:08:04;;;;;;;2.53;2.30;;;;;;;;;;5072167;28;20082;-61
2021/06/20 12:10:31;;;;;;;2.57;2.27;;;;;;;;;;5072379;28;20494;-61
2021/06/20 12:13:06;;;;;;;2.20;2.08;;;;;;;;;;5072219;28;20721;-61
2021/06/20 12:15:33;;;;;;;2.30;2.08;;;;;;;;;;5073399;28;20389;-60
2021/06/20 12:18:02;;;;;;;2.05;1.95;;;;;;;;;;5073416;28;20016;-60
2021/06/20 12:20:32;;;;;;;2.40;2.30;;;;;;;;;;5073344;28;20123;-60
2021/06/20 12:22:58;;;;;;;2.00;1.90;;;;;;;;;;5073492;28;20064;-60
2021/06/20 12:25:24;;;;;;;2.53;2.33;;;;;;;;;;5071836;28;20036;-60
2021/06/20 12:27:49;;;;;;;2.60;2.50;;;;;;;;;;5073164;28;20457;-60
2021/06/20 12:30:22;;;;;;;2.42;2.22;;;;;;;;;;5072207;28;20024;-61
2021/06/20 12:32:48;;;;;;;2.63;2.42;;;;;;;;;;5072206;28;20348;-61
2021/06/20 12:35:19;;;;;;;2.95;2.20;;;;;;;;;;5072463;28;20116;-61
2021/06/20 12:37:45;;;;;;;2.30;2.10;;;;;;;;;;5072387;28;20091;-61
2021/06/20 12:40:20;;;;;;;2.45;2.25;;;;;;;;;;5072259;28;20066;-61
2021/06/20 12:42:50;;;;;;;2.75;2.53;;;;;;;;;;5069886;28;20040;-61
2021/06/20 12:45:26;;;;;;;2.60;2.40;;;;;;;;;;5071988;28;20387;-60
2021/06/20 12:47:53;;;;;;;5.57;2.40;;;;;;;;;;5070027;28;20131;-61
2021/06/20 12:50:30;;;;;;;2.13;2.03;;;;;;;;;;5072354;28;20036;-60
2021/06/20 12:52:56;;;;;;;2.50;2.40;;;;;;;;;;5070081;28;20032;-60
2021/06/20 12:55:22;;;;;;;2.80;2.67;;;;;;;;;;5072292;28;20459;-61
2021/06/20 12:57:49;;;;;;;2.95;2.75;;;;;;;;;;5072439;28;20039;-60
2021/06/20 13:00:15;;;;;;;2.38;2.28;;;;;;;;;;5071882;28;20162;-60
2021/06/20 13:02:40;;;;;;;2.47;2.38;;;;;;;;;;5072227;28;20024;-60
2021/06/20 13:05:06;;;;;;;4.13;2.50;;;;;;;;;;5071797;28;20330;-61
2021/06/20 13:07:33;;;;;;;4.25;2.90;;;;;;;;;;5052789;28;20036;-61
2021/06/20 13:09:58;;;;;;;2.53;2.30;;;;;;;;;;5066935;28;20407;-61
2021/06/20 13:12:24;;;;;;;2.95;2.40;;;;;;;;;;5072760;28;20086;-61
2021/06/20 13:14:49;;;;;;;2.33;2.22;;;;;;;;;;5073002;28;20350;-61
2021/06/20 13:17:15;;;;;;;4.28;2.75;;;;;;;;;;5071443;28;20033;-61
2021/06/20 13:19:40;;;;;;;2.40;2.30;;;;;;;;;;5075230;28;20459;-61
2021/06/20 13:22:06;;;;;;;2.50;2.40;;;;;;;;;;5076368;28;20028;-61
2021/06/20 13:24:31;;;;;;;2.50;2.40;;;;;;;;;;5076094;28;20020;-60
2021/06/20 13:26:57;;;;;;;2.65;2.50;;;;;;;;;;5076247;28;20032;-61
2021/06/20 13:29:23;;;;;;;4.00;2.45;;;;;;;;;;5076293;28;20047;-60
2021/06/20 13:31:49;;;;;;;2.40;2.30;;;;;;;;;;5076088;28;20032;-61
2021/06/20 13:34:14;;;;;;;2.47;2.38;;;;;;;;;;5075935;28;20374;-61
2021/06/20 13:36:40;;;;;;;5.10;2.83;;;;;;;;;;5075988;28;20489;-61
2021/06/20 13:39:05;;;;;;;6.47;2.70;;;;;;;;;;5075775;28;20388;-61
2021/06/20 13:41:31;;;;;;;2.70;2.60;;;;;;;;;;5075743;28;20474;-61
2021/06/20 13:43:56;;;;;;;2.60;2.50;;;;;;;;;;5076127;28;20020;-61
2021/06/20 13:46:22;;;;;;;2.75;2.55;;;;;;;;;;5076044;28;20055;-61
2021/06/20 13:48:47;;;;;;;2.83;2.63;;;;;;;;;;5075690;28;20031;-60
2021/06/20 13:51:13;;;;;;;2.60;2.40;;;;;;;;;;5075553;28;20030;-59
2021/06/20 13:53:39;;;;;;;2.80;2.40;;;;;;;;;;5075534;28;20021;-60
2021/06/20 13:56:05;;;;;;;2.70;2.50;;;;;;;;;;5075643;28;20082;-61
2021/06/20 13:58:31;;;;;;;2.78;2.60;;;;;;;;;;5074584;28;20462;-60
2021/06/20 14:00:56;;;;;;;2.80;2.60;;;;;;;;;;5075851;28;20051;-62
2021/06/20 14:03:22;;;;;;;2.85;2.60;;;;;;;;;;5075866;28;20024;-61
2021/06/20 14:05:47;;;;;;;2.53;2.42;;;;;;;;;;5075755;28;20041;-61
2021/06/20 14:08:13;;;;;;;2.25;2.15;;;;;;;;;;5075375;28;20077;-60
2021/06/20 14:10:38;;;;;;;2.80;2.50;;;;;;;;;;5075450;28;20025;-60
2021/06/20 14:13:04;;;;;;;2.38;2.28;;;;;;;;;;5075605;28;20096;-62
2021/06/20 14:15:30;;;;;;;2.45;2.33;;;;;;;;;;5075282;28;20028;-62
2021/06/20 14:17:55;;;;;;;2.60;2.40;;;;;;;;;;5075203;28;20035;-61
2021/06/20 14:20:21;;;;;;;2.40;2.30;;;;;;;;;;5075227;28;20025;-62
2021/06/20 14:22:46;;;;;;;2.83;2.63;;;;;;;;;;5075200;28;20474;-62
2021/06/20 14:25:12;;;;;;;2.42;2.22;;;;;;;;;;5075154;28;20024;-61
2021/06/20 14:31:13;;;;;;;2.72;2.53;;;;;;;;;;5074587;28;20046;-61
2021/06/20 14:33:39;;;;;;;5.78;2.90;;;;;;;;;;5075589;28;20112;-62
2021/06/20 14:36:05;;;;;;;2.30;2.20;;;;;;;;;;5074671;28;20561;-61
2021/06/20 14:38:31;;;;;;;2.50;2.40;;;;;;;;;;5073527;28;20111;-62
2021/06/20 14:40:57;;;;;;;2.72;2.63;;;;;;;;;;5074607;28;20173;-61
2021/06/20 14:43:22;;;;;;;3.05;2.28;;;;;;;;;;5074848;28;20093;-61